createdAt,value
2023-10-23T04:15:24.233Z,1007.88
2023-10-23T04:16:24.169Z,1007.89
2023-10-23T04:17:24.123Z,1007.85
2023-10-23T04:18:24.129Z,1007.86
2023-10-23T04:19:24.092Z,1007.85
2023-10-23T04:20:24.075Z,1007.87
2023-10-23T04:21:24.109Z,1007.83
2023-10-23T04:22:24.087Z,1007.88
2023-10-23T04:23:24.096Z,1007.87
2023-10-23T04:24:24.071Z,1007.89
2023-10-23T04:25:24.064Z,1007.87
2023-10-23T04:26:24.043Z,1007.87
2023-10-23T04:27:24.192Z,1007.81
2023-10-23T04:28:24.068Z,1007.83
2023-10-23T04:29:24.034Z,1007.86
2023-10-23T04:30:24.056Z,1007.83
2023-10-23T04:31:24.079Z,1007.86
2023-10-23T04:32:24.038Z,1007.83
2023-10-23T04:33:24.039Z,1007.85
2023-10-23T04:34:24.005Z,1007.86
2023-10-23T04:35:24.055Z,1007.84
2023-10-23T04:36:24.041Z,1007.86
2023-10-23T04:37:24.019Z,1007.85
2023-10-23T04:38:24.006Z,1007.86
2023-10-23T04:39:24.031Z,1007.90
2023-10-23T04:40:23.988Z,1007.89
2023-10-23T04:41:24.018Z,1007.87
2023-10-23T04:42:24.059Z,1007.89
2023-10-23T04:43:23.993Z,1007.89
2023-10-23T04:44:24.059Z,1007.92
2023-10-23T04:45:23.983Z,1007.88
2023-10-23T04:46:24.134Z,1007.89
2023-10-23T04:47:24.005Z,1007.94
2023-10-23T04:48:24.011Z,1007.91
2023-10-23T04:49:23.956Z,1007.95
2023-10-23T04:50:23.954Z,1007.96
2023-10-23T04:51:24.023Z,1007.98
2023-10-23T04:52:23.960Z,1007.93
2023-10-23T04:53:23.940Z,1007.95
2023-10-23T04:54:23.986Z,1007.96
2023-10-23T04:55:23.931Z,1008.01
2023-10-23T04:56:23.963Z,1007.97
2023-10-23T04:57:24.000Z,1007.98
2023-10-23T04:58:24.035Z,1007.98
2023-10-23T04:59:23.918Z,1007.98
2023-10-23T05:00:23.939Z,1008.00
2023-10-23T05:01:24.005Z,1008.03
2023-10-23T05:02:23.920Z,1008.00
2023-10-23T05:03:24.000Z,1008.00
2023-10-23T05:04:24.056Z,1008.01
2023-10-23T05:05:23.908Z,1007.99
2023-10-23T05:06:23.930Z,1008.00
2023-10-23T05:07:23.898Z,1008.01
2023-10-23T05:08:23.886Z,1008.00
2023-10-23T05:09:23.922Z,1007.99
2023-10-23T05:10:23.880Z,1007.95
2023-10-23T05:11:23.895Z,1007.96
2023-10-23T05:12:23.966Z,1007.96
2023-10-23T05:13:23.899Z,1007.98
2023-10-23T05:14:23.866Z,1007.99
2023-10-23T05:15:23.905Z,1007.97
2023-10-23T05:16:23.993Z,1008.00
2023-10-23T05:17:23.886Z,1008.01
2023-10-23T05:18:23.901Z,1008.04
2023-10-23T05:19:23.864Z,1008.05
2023-10-23T05:20:23.857Z,1008.08
2023-10-23T05:21:23.950Z,1008.09
2023-10-23T05:22:23.844Z,1008.08
2023-10-23T05:23:23.833Z,1008.10
2023-10-23T05:24:23.907Z,1008.10
2023-10-23T05:25:23.837Z,1008.12
2023-10-23T05:26:23.832Z,1008.13
2023-10-23T05:27:23.830Z,1008.15
2023-10-23T05:28:23.823Z,1008.17
2023-10-23T05:29:23.841Z,1008.18
2023-10-23T05:30:23.844Z,1008.21
2023-10-23T05:31:23.840Z,1008.24
2023-10-23T05:32:23.854Z,1008.24
2023-10-23T05:33:23.844Z,1008.23
2023-10-23T05:34:23.779Z,1008.26
2023-10-23T05:35:23.797Z,1008.23
2023-10-23T05:36:23.829Z,1008.23
2023-10-23T05:37:23.810Z,1008.22
2023-10-23T05:38:23.775Z,1008.25
2023-10-23T05:39:23.800Z,1008.24
2023-10-23T05:40:23.773Z,1008.25
2023-10-23T05:41:23.756Z,1008.30
2023-10-23T05:42:23.801Z,1008.30
2023-10-23T05:43:23.766Z,1008.34
2023-10-23T05:44:23.742Z,1008.37
2023-10-23T05:45:23.746Z,1008.40
2023-10-23T05:46:23.828Z,1008.42
2023-10-23T05:47:23.729Z,1008.42
2023-10-23T05:48:23.830Z,1008.42
2023-10-23T05:49:23.757Z,1008.45
2023-10-23T05:50:23.732Z,1008.43
2023-10-23T05:51:23.934Z,1008.43
2023-10-23T05:52:23.731Z,1008.43
2023-10-23T05:53:23.739Z,1008.39
2023-10-23T05:54:23.755Z,1008.40
2023-10-23T05:55:23.708Z,1008.38
2023-10-23T05:56:23.716Z,1008.39
2023-10-23T05:57:23.713Z,1008.37
2023-10-23T05:58:23.709Z,1008.40
2023-10-23T05:59:23.710Z,1008.43
2023-10-23T06:00:23.813Z,1008.42
2023-10-23T06:01:23.747Z,1008.41
2023-10-23T06:02:23.688Z,1008.42
2023-10-23T06:03:23.741Z,1008.46
2023-10-23T06:04:23.768Z,1008.51
2023-10-23T06:05:23.686Z,1008.56
2023-10-23T06:06:23.958Z,1008.59
2023-10-23T06:07:23.784Z,1008.60
2023-10-23T06:08:23.699Z,1008.56
2023-10-23T06:09:23.688Z,1008.55
2023-10-23T06:10:23.640Z,1008.56
2023-10-23T06:11:23.649Z,1008.53
2023-10-23T06:12:23.645Z,1008.47
2023-10-23T06:13:23.679Z,1008.51
2023-10-23T06:14:23.633Z,1008.52
2023-10-23T06:15:23.639Z,1008.56
2023-10-23T06:16:23.741Z,1008.54
2023-10-23T06:17:23.629Z,1008.54
2023-10-23T06:18:23.645Z,1008.52
2023-10-23T06:19:23.608Z,1008.58
2023-10-23T06:20:23.605Z,1008.59
2023-10-23T06:21:23.632Z,1008.61
2023-10-23T06:22:23.625Z,1008.59
2023-10-23T06:23:23.624Z,1008.63
2023-10-23T06:24:23.604Z,1008.64
2023-10-23T06:25:23.657Z,1008.65
2023-10-23T06:26:23.595Z,1008.68
2023-10-23T06:27:23.581Z,1008.70
2023-10-23T06:28:23.571Z,1008.75
2023-10-23T06:29:23.602Z,1008.78
2023-10-23T06:30:23.596Z,1008.77
2023-10-23T06:31:23.613Z,1008.79
2023-10-23T06:32:23.588Z,1008.78
2023-10-23T06:33:23.596Z,1008.78
2023-10-23T06:34:23.558Z,1008.79
2023-10-23T06:35:23.580Z,1008.78
2023-10-23T06:36:23.552Z,1008.74
2023-10-23T06:37:23.537Z,1008.72
2023-10-23T06:38:23.577Z,1008.75
2023-10-23T06:39:23.543Z,1008.75
2023-10-23T06:40:23.529Z,1008.75
2023-10-23T06:41:23.564Z,1008.77
2023-10-23T06:42:23.583Z,1008.76
2023-10-23T06:43:23.537Z,1008.73
2023-10-23T06:44:23.511Z,1008.73
2023-10-23T06:45:24.557Z,1008.68
2023-10-23T06:46:23.581Z,1008.70
2023-10-23T06:47:23.523Z,1008.70
2023-10-23T06:48:23.641Z,1008.70
2023-10-23T06:49:23.488Z,1008.72
2023-10-23T06:50:23.516Z,1008.71
2023-10-23T06:51:23.512Z,1008.69
2023-10-23T06:52:23.503Z,1008.70
2023-10-23T06:53:23.496Z,1008.70
2023-10-23T06:54:23.528Z,1008.73
2023-10-23T06:55:23.496Z,1008.71
2023-10-23T06:56:23.466Z,1008.73
2023-10-23T06:57:23.545Z,1008.74
2023-10-23T06:58:23.504Z,1008.75
2023-10-23T06:59:23.446Z,1008.78
2023-10-23T07:00:23.491Z,1008.74
2023-10-23T07:01:33.794Z,1008.73
2023-10-23T07:02:23.537Z,1008.75
2023-10-23T07:03:23.626Z,1008.76
2023-10-23T07:04:23.530Z,1008.74
2023-10-23T07:05:23.459Z,1008.76
2023-10-23T07:06:23.473Z,1008.74
2023-10-23T07:07:29.849Z,1008.72
2023-10-23T07:08:23.444Z,1008.68
2023-10-23T07:09:23.434Z,1008.67
2023-10-23T07:10:23.433Z,1008.72
2023-10-23T07:11:23.444Z,1008.77
2023-10-23T07:12:23.440Z,1008.76
2023-10-23T07:13:23.598Z,1008.73
2023-10-23T07:14:23.425Z,1008.73
2023-10-23T07:15:23.425Z,1008.76
2023-10-23T07:16:23.475Z,1008.73
2023-10-23T07:17:23.507Z,1008.76
2023-10-23T07:18:23.520Z,1008.75
2023-10-23T07:19:23.396Z,1008.73
2023-10-23T07:20:23.402Z,1008.73
2023-10-23T07:21:23.404Z,1008.69
2023-10-23T07:22:23.392Z,1008.71
2023-10-23T07:23:23.456Z,1008.69
2023-10-23T07:24:23.394Z,1008.73
2023-10-23T07:25:23.390Z,1008.75
2023-10-23T07:26:23.381Z,1008.74
2023-10-23T07:27:23.407Z,1008.75
2023-10-23T07:28:23.370Z,1008.74
2023-10-23T07:29:23.393Z,1008.77
2023-10-23T07:30:23.438Z,1008.79
2023-10-23T07:31:23.429Z,1008.72
2023-10-23T07:32:23.357Z,1008.76
2023-10-23T07:33:23.410Z,1008.68
2023-10-23T07:34:23.362Z,1008.72
2023-10-23T07:35:23.354Z,1008.70
2023-10-23T07:36:23.346Z,1008.76
2023-10-23T07:37:23.350Z,1008.71
2023-10-23T07:38:23.345Z,1008.77
2023-10-23T07:39:23.377Z,1008.77
2023-10-23T07:40:23.438Z,1008.80
2023-10-23T07:41:23.388Z,1008.79
2023-10-23T07:42:23.329Z,1008.83
2023-10-23T07:43:23.333Z,1008.82
2023-10-23T07:44:23.325Z,1008.83
2023-10-23T07:45:23.340Z,1008.81
2023-10-23T07:46:23.370Z,1008.84
2023-10-23T07:47:23.430Z,1008.83
2023-10-23T07:48:24.076Z,1008.84
2023-10-23T07:49:23.364Z,1008.85
2023-10-23T07:50:23.289Z,1008.89
2023-10-23T07:51:23.362Z,1008.85
2023-10-23T07:52:23.290Z,1008.83
2023-10-23T07:53:23.299Z,1008.86
2023-10-23T07:54:23.283Z,1008.86
2023-10-23T07:55:23.279Z,1008.86
2023-10-23T07:56:23.284Z,1008.84
2023-10-23T07:57:23.272Z,1008.86
2023-10-23T07:58:23.275Z,1008.86
2023-10-23T07:59:23.287Z,1008.86
2023-10-23T08:00:23.285Z,1008.84
2023-10-23T08:01:23.392Z,1008.82
2023-10-23T08:02:23.363Z,1008.83
2023-10-23T08:03:23.393Z,1008.83
2023-10-23T08:04:23.446Z,1008.78
2023-10-23T08:05:23.243Z,1008.80
2023-10-23T08:06:23.252Z,1008.79
2023-10-23T08:07:23.264Z,1008.80
2023-10-23T08:08:23.257Z,1008.77
2023-10-23T08:09:23.233Z,1008.78
2023-10-23T08:10:23.312Z,1008.76
2023-10-23T08:11:23.237Z,1008.77
2023-10-23T08:12:23.225Z,1008.78
2023-10-23T08:13:23.286Z,1008.81
2023-10-23T08:14:23.222Z,1008.79
2023-10-23T08:15:23.234Z,1008.77
2023-10-23T08:16:23.322Z,1008.77
2023-10-23T08:17:39.438Z,1008.77
2023-10-23T08:18:37.276Z,1008.76
2023-10-23T08:19:23.333Z,1008.76
2023-10-23T08:20:23.225Z,1008.76
2023-10-23T08:21:23.216Z,1008.75
2023-10-23T08:22:23.235Z,1008.76
2023-10-23T08:23:23.220Z,1008.80
2023-10-23T08:24:23.242Z,1008.79
2023-10-23T08:25:23.234Z,1008.75
2023-10-23T08:26:23.211Z,1008.78
2023-10-23T08:27:23.208Z,1008.78
2023-10-23T08:28:23.250Z,1008.81
2023-10-23T08:29:23.217Z,1008.82
2023-10-23T08:30:23.204Z,1008.81
2023-10-23T08:31:34.967Z,1008.82
2023-10-23T08:32:28.580Z,1008.78
2023-10-23T08:33:23.331Z,1008.82
2023-10-23T08:34:23.366Z,1008.84
2023-10-23T08:35:23.189Z,1008.82
2023-10-23T08:36:23.203Z,1008.81
2023-10-23T08:37:23.235Z,1008.79
2023-10-23T08:38:23.190Z,1008.78
2023-10-23T08:41:55.763Z,1008.80
2023-10-23T08:42:55.813Z,1008.82
2023-10-23T08:43:55.738Z,1008.79
2023-10-23T08:44:55.753Z,1008.80
2023-10-23T08:45:55.744Z,1008.85
2023-10-23T08:46:55.770Z,1008.85
2023-10-23T08:47:55.764Z,1008.82
2023-10-23T08:48:55.776Z,1008.86
2023-10-23T08:49:55.741Z,1008.86
2023-10-23T08:50:55.748Z,1008.87
2023-10-23T08:51:55.748Z,1008.89
2023-10-23T08:52:55.716Z,1008.80
2023-10-23T08:54:09.364Z,1008.85
2023-10-23T08:54:55.746Z,1008.83
2023-10-23T08:55:55.725Z,1008.81
2023-10-23T08:56:55.737Z,1008.82
2023-10-23T08:57:55.767Z,1008.79
2023-10-23T08:58:55.745Z,1008.82
2023-10-23T08:59:55.705Z,1008.79
2023-10-23T09:00:55.824Z,1008.78
2023-10-23T09:02:01.846Z,1008.77
2023-10-23T09:02:55.784Z,1008.78
2023-10-23T09:04:04.227Z,1008.76
2023-10-23T09:04:55.754Z,1008.75
2023-10-23T09:05:55.708Z,1008.76
2023-10-23T09:06:55.774Z,1008.76
2023-10-23T09:07:55.714Z,1008.74
2023-10-23T09:08:55.714Z,1008.72
2023-10-23T09:09:55.761Z,1008.75
2023-10-23T09:10:55.696Z,1008.73
2023-10-23T09:11:55.694Z,1008.71
2023-10-23T09:12:55.723Z,1008.68
2023-10-23T09:13:55.741Z,1008.65
2023-10-23T09:14:55.698Z,1008.59
2023-10-23T09:16:55.944Z,1008.58
2023-10-23T09:17:55.731Z,1008.57
2023-10-23T09:18:55.821Z,1008.61
2023-10-23T09:19:55.684Z,1008.53
2023-10-23T09:20:55.769Z,1008.55
2023-10-23T09:21:55.805Z,1008.50
2023-10-23T09:22:55.685Z,1008.53
2023-10-23T09:23:55.695Z,1008.55
2023-10-23T09:24:55.744Z,1008.47
2023-10-23T09:25:55.698Z,1008.49
2023-10-23T09:26:55.693Z,1008.49
2023-10-23T09:27:55.683Z,1008.46
2023-10-23T09:28:55.692Z,1008.40
2023-10-23T09:29:55.696Z,1008.42
2023-10-23T09:30:55.776Z,1008.40
2023-10-23T09:32:55.736Z,1008.38
2023-10-23T09:33:55.826Z,1008.39
2023-10-23T09:34:55.850Z,1008.39
2023-10-23T09:35:55.676Z,1008.37
2023-10-23T09:36:55.730Z,1008.36
2023-10-23T09:37:55.683Z,1008.32
2023-10-23T09:38:55.707Z,1008.32
2023-10-23T09:39:55.701Z,1008.31
2023-10-23T09:40:55.674Z,1008.32
2023-10-23T09:41:55.684Z,1008.30
2023-10-23T09:42:55.719Z,1008.33
2023-10-23T09:43:55.698Z,1008.32
2023-10-23T09:44:55.664Z,1008.33
2023-10-23T09:45:55.701Z,1008.36
2023-10-23T09:46:55.733Z,1008.35
2023-10-23T09:47:55.794Z,1008.33
2023-10-23T09:49:00.535Z,1008.39
2023-10-23T09:49:55.754Z,1008.32
2023-10-23T09:50:56.220Z,1008.32
2023-10-23T09:51:55.687Z,1008.33
2023-10-23T09:52:55.675Z,1008.31
2023-10-23T09:53:55.698Z,1008.32
2023-10-23T09:54:56.236Z,1008.31
2023-10-23T09:55:55.677Z,1008.30
2023-10-23T09:56:55.670Z,1008.34
2023-10-23T09:57:55.734Z,1008.30
2023-10-23T09:58:55.687Z,1008.34
2023-10-23T09:59:55.702Z,1008.31
2023-10-23T10:00:58.364Z,1008.31
2023-10-23T10:01:55.729Z,1008.32
2023-10-23T10:02:55.832Z,1008.36
2023-10-23T10:03:55.689Z,1008.36
2023-10-23T10:04:55.677Z,1008.40
2023-10-23T10:05:55.685Z,1008.42
2023-10-23T10:06:56.445Z,1008.37
2023-10-23T10:07:55.698Z,1008.41
2023-10-23T10:08:55.660Z,1008.43
2023-10-23T10:09:55.711Z,1008.42
2023-10-23T10:10:55.665Z,1008.40
2023-10-23T10:11:55.671Z,1008.42
2023-10-23T10:12:55.701Z,1008.43
2023-10-23T10:13:55.680Z,1008.42
2023-10-23T10:14:55.686Z,1008.43
2023-10-23T10:15:55.728Z,1008.40
2023-10-23T10:16:55.716Z,1008.38
2023-10-23T10:17:55.693Z,1008.36
2023-10-23T10:29:50.516Z,1008.25
2023-10-23T10:30:50.501Z,1008.27
2023-10-23T10:31:50.543Z,1008.24
2023-10-23T10:34:27.570Z,1008.23
2023-10-23T10:34:57.004Z,1008.25
2023-10-23T10:35:50.541Z,1008.22
2023-10-23T10:36:50.466Z,1008.20
2023-10-23T10:37:50.450Z,1008.18
2023-10-23T10:38:50.415Z,1008.18
2023-10-23T10:39:50.427Z,1008.15
2023-10-23T10:40:50.408Z,1008.14
2023-10-23T10:41:50.413Z,1008.15
2023-10-23T10:42:50.437Z,1008.16
2023-10-23T10:43:50.397Z,1008.15
2023-10-23T10:44:50.394Z,1008.13
2023-10-23T10:45:50.463Z,1008.16
2023-10-23T10:46:53.733Z,1008.20
2023-10-23T10:47:50.438Z,1008.18
2023-10-23T10:48:50.404Z,1008.18
2023-10-23T10:49:50.389Z,1008.18
2023-10-23T10:50:50.396Z,1008.19
2023-10-23T10:51:50.463Z,1008.14
2023-10-23T10:52:50.416Z,1008.15
2023-10-23T10:53:50.398Z,1008.17
2023-10-23T10:54:50.478Z,1008.21
2023-10-23T10:55:50.387Z,1008.19
2023-10-23T10:56:50.385Z,1008.21
2023-10-23T10:57:50.418Z,1008.20
2023-10-23T10:58:50.400Z,1008.18
2023-10-23T10:59:50.404Z,1008.15
2023-10-23T11:00:50.501Z,1008.16
2023-10-23T11:01:50.465Z,1008.13
2023-10-23T11:02:50.587Z,1008.14
2023-10-23T11:03:50.496Z,1008.06
2023-10-23T11:04:50.391Z,1008.05
2023-10-23T11:05:50.387Z,1008.05
2023-10-23T11:06:50.410Z,1008.06
2023-10-23T11:07:50.398Z,1008.05
2023-10-23T11:08:50.393Z,1008.01
2023-10-23T11:09:50.388Z,1008.02
2023-10-23T11:10:50.379Z,1008.01
2023-10-23T11:11:50.376Z,1007.97
2023-10-23T11:12:50.422Z,1007.95
2023-10-23T11:13:50.430Z,1007.96
2023-10-23T11:14:50.391Z,1007.96
2023-10-23T11:15:50.402Z,1007.94
2023-10-23T11:16:50.435Z,1007.97
2023-10-23T11:17:50.454Z,1007.87
2023-10-23T11:18:50.429Z,1007.93
2023-10-23T11:19:50.372Z,1007.90
2023-10-23T11:20:50.487Z,1007.87
2023-10-23T11:21:50.431Z,1007.85
2023-10-23T11:22:50.385Z,1007.86
2023-10-23T11:23:50.378Z,1007.88
2023-10-23T11:24:50.559Z,1007.90
2023-10-23T11:25:50.378Z,1007.87
2023-10-23T11:26:50.366Z,1007.88
2023-10-23T11:27:50.402Z,1007.85
2023-10-23T11:28:50.397Z,1007.81
2023-10-23T11:29:50.384Z,1007.83
2023-10-23T11:30:50.394Z,1007.82
2023-10-23T11:31:50.431Z,1007.86
2023-10-23T11:32:50.371Z,1007.85
2023-10-23T11:33:50.427Z,1007.85
2023-10-23T11:34:50.412Z,1007.84
2023-10-23T11:35:50.368Z,1007.85
2023-10-23T11:36:50.385Z,1007.83
2023-10-23T11:37:50.381Z,1007.83
2023-10-23T11:38:50.371Z,1007.80
2023-10-23T11:39:50.426Z,1007.85
2023-10-23T11:40:50.372Z,1007.82
2023-10-23T11:41:50.359Z,1007.81
2023-10-23T11:42:50.372Z,1007.77
2023-10-23T11:43:50.352Z,1007.79
2023-10-23T11:44:50.407Z,1007.77
2023-10-23T11:45:50.448Z,1007.79
2023-10-23T11:46:50.412Z,1007.78
2023-10-23T11:47:50.412Z,1007.74
2023-10-23T11:48:50.351Z,1007.77
2023-10-23T11:49:50.462Z,1007.80
2023-10-23T11:50:50.356Z,1007.73
2023-10-23T11:51:50.363Z,1007.72
2023-10-23T11:52:50.381Z,1007.75
2023-10-23T11:53:50.364Z,1007.73
2023-10-23T11:54:50.376Z,1007.72
2023-10-23T11:55:50.406Z,1007.74
2023-10-23T11:56:50.347Z,1007.78
2023-10-23T11:57:50.391Z,1007.76
2023-10-23T11:58:50.345Z,1007.75
2023-10-23T11:59:50.374Z,1007.71
2023-10-23T12:01:50.401Z,1007.68
2023-10-23T12:02:50.439Z,1007.64
2023-10-23T12:03:50.440Z,1007.64
2023-10-23T12:04:50.400Z,1007.64
2023-10-23T12:05:50.347Z,1007.64
2023-10-23T12:06:50.363Z,1007.62
2023-10-23T12:07:50.325Z,1007.65
2023-10-23T12:08:50.336Z,1007.62
2023-10-23T12:09:50.361Z,1007.62
2023-10-23T12:10:50.340Z,1007.62
2023-10-23T12:11:50.332Z,1007.58
2023-10-23T12:12:50.379Z,1007.55
2023-10-23T12:13:50.365Z,1007.53
2023-10-23T12:14:51.582Z,1007.52
2023-10-23T12:15:50.391Z,1007.49
2023-10-23T12:16:50.446Z,1007.52
2023-10-23T12:17:50.328Z,1007.48
2023-10-23T12:18:50.370Z,1007.46
2023-10-23T12:19:50.335Z,1007.46
2023-10-23T12:20:50.322Z,1007.47
2023-10-23T12:21:50.382Z,1007.46
2023-10-23T12:22:50.343Z,1007.45
2023-10-23T12:23:50.354Z,1007.46
2023-10-23T12:24:50.359Z,1007.44
2023-10-23T12:25:50.362Z,1007.46
2023-10-23T12:26:50.321Z,1007.43
2023-10-23T12:27:50.370Z,1007.41
2023-10-23T12:28:50.357Z,1007.39
2023-10-23T12:29:50.383Z,1007.39
2023-10-23T12:30:50.368Z,1007.42
2023-10-23T12:32:00.389Z,1007.39
2023-10-23T12:33:12.006Z,1007.36
2023-10-23T12:33:50.712Z,1007.32
2023-10-23T12:34:50.471Z,1007.31
2023-10-23T12:35:50.320Z,1007.30
2023-10-23T12:36:50.335Z,1007.27
2023-10-23T12:37:50.386Z,1007.26
2023-10-23T12:38:50.366Z,1007.27
2023-10-23T12:39:50.363Z,1007.26
2023-10-23T12:40:50.575Z,1007.25
2023-10-23T12:41:50.372Z,1007.24
2023-10-23T12:42:50.590Z,1007.22
2023-10-23T12:43:50.407Z,1007.22
2023-10-23T12:44:50.340Z,1007.19
2023-10-23T12:45:50.432Z,1007.18
2023-10-23T12:46:51.785Z,1007.18
2023-10-23T12:47:50.389Z,1007.14
2023-10-23T12:48:50.344Z,1007.14
2023-10-23T12:49:50.377Z,1007.14
2023-10-23T12:50:50.335Z,1007.10
2023-10-23T12:51:50.395Z,1007.09
2023-10-23T12:52:50.415Z,1007.13
2023-10-23T12:53:50.356Z,1007.11
2023-10-23T12:54:50.360Z,1007.12
2023-10-23T12:55:50.327Z,1007.16
2023-10-23T12:56:50.342Z,1007.13
2023-10-23T12:57:50.391Z,1007.07
2023-10-23T12:58:50.332Z,1007.07
2023-10-23T13:03:55.523Z,1006.97
2023-10-23T13:04:55.547Z,1006.98
2023-10-23T13:05:55.472Z,1006.94
2023-10-23T13:06:55.485Z,1006.97
2023-10-23T13:07:55.473Z,1006.94
2023-10-23T13:08:55.467Z,1006.93
2023-10-23T13:09:55.483Z,1006.95
2023-10-23T13:10:55.449Z,1006.95
2023-10-23T13:11:55.461Z,1006.92
2023-10-23T13:12:55.552Z,1006.91
2023-10-23T13:13:55.466Z,1006.91
2023-10-23T13:14:55.457Z,1006.90
2023-10-23T13:15:55.519Z,1006.87
2023-10-23T13:16:55.535Z,1006.90
2023-10-23T13:17:55.574Z,1006.91
2023-10-23T13:18:55.502Z,1006.91
2023-10-23T13:19:55.484Z,1006.92
2023-10-23T13:21:31.566Z,1006.89
2023-10-23T13:21:55.505Z,1006.92
2023-10-23T13:22:55.514Z,1006.87
2023-10-23T13:23:55.501Z,1006.83
2023-10-23T13:24:55.586Z,1006.84
2023-10-23T13:26:10.171Z,1006.84
2023-10-23T13:26:55.451Z,1006.82
2023-10-23T13:27:55.558Z,1006.81
2023-10-23T13:28:55.467Z,1006.80
2023-10-23T13:29:55.497Z,1006.77
2023-10-23T13:30:55.589Z,1006.77
2023-10-23T13:31:55.512Z,1006.79
2023-10-23T13:32:55.482Z,1006.80
2023-10-23T13:33:55.517Z,1006.82
2023-10-23T13:34:55.462Z,1006.77
2023-10-23T13:35:55.475Z,1006.74
2023-10-23T13:36:55.500Z,1006.73
2023-10-23T13:37:55.511Z,1006.70
2023-10-23T13:38:55.455Z,1006.69
2023-10-23T13:39:55.489Z,1006.70
2023-10-23T13:40:55.513Z,1006.64
2023-10-23T13:41:55.448Z,1006.59
2023-10-23T13:42:55.655Z,1006.57
2023-10-23T13:43:55.460Z,1006.57
2023-10-23T13:44:55.457Z,1006.52
2023-10-23T13:45:55.652Z,1006.53
2023-10-23T13:46:55.553Z,1006.53
2023-10-23T13:47:58.241Z,1006.53
2023-10-23T13:48:55.498Z,1006.50
2023-10-23T13:49:55.481Z,1006.49
2023-10-23T13:50:55.486Z,1006.45
2023-10-23T13:51:55.468Z,1006.44
2023-10-23T13:52:55.444Z,1006.44
2023-10-23T13:53:55.449Z,1006.40
2023-10-23T13:54:55.474Z,1006.40
2023-10-23T13:55:55.473Z,1006.34
2023-10-23T13:56:55.475Z,1006.33
2023-10-23T13:57:55.473Z,1006.25
2023-10-23T13:58:55.440Z,1006.24
2023-10-23T13:59:55.461Z,1006.19
2023-10-23T14:00:55.457Z,1006.21
2023-10-23T14:01:55.512Z,1006.19
2023-10-23T14:02:55.529Z,1006.21
2023-10-23T14:03:55.588Z,1006.16
2023-10-23T14:04:55.649Z,1006.20
2023-10-23T14:05:55.464Z,1006.17
2023-10-23T14:06:55.459Z,1006.17
2023-10-23T14:07:55.439Z,1006.14
2023-10-23T14:09:43.971Z,1006.12
2023-10-23T14:09:55.453Z,1006.09
2023-10-23T14:11:57.122Z,1006.08
2023-10-23T14:11:59.947Z,1006.12
2023-10-23T14:12:55.463Z,1006.11
2023-10-23T14:13:55.449Z,1006.10
2023-10-23T14:14:55.425Z,1006.09
2023-10-23T14:15:55.485Z,1006.10
2023-10-23T14:16:55.612Z,1006.09
2023-10-23T14:17:55.448Z,1006.08
2023-10-23T14:18:55.441Z,1006.09
2023-10-23T14:19:55.507Z,1006.08
2023-10-23T14:20:55.432Z,1006.11
2023-10-23T14:21:55.451Z,1006.06
2023-10-23T14:22:55.421Z,1006.06
2023-10-23T14:23:55.442Z,1006.04
2023-10-23T14:24:55.501Z,1006.03
2023-10-23T14:25:55.445Z,1006.02
2023-10-23T14:26:55.417Z,1006.00
2023-10-23T14:27:55.566Z,1005.94
2023-10-23T14:28:55.434Z,1005.96
2023-10-23T14:29:55.413Z,1005.95
2023-10-23T14:30:55.443Z,1005.96
2023-10-23T14:31:55.470Z,1005.90
2023-10-23T14:32:55.474Z,1005.89
2023-10-23T14:33:57.634Z,1005.93
2023-10-23T14:34:55.414Z,1005.89
2023-10-23T14:35:55.408Z,1005.85
2023-10-23T14:36:55.569Z,1005.88
2023-10-23T14:37:55.416Z,1005.86
2023-10-23T14:38:55.409Z,1005.86
2023-10-23T14:39:58.709Z,1005.83
2023-10-23T14:40:55.407Z,1005.83
2023-10-23T14:41:55.398Z,1005.82
2023-10-23T14:42:55.441Z,1005.80
2023-10-23T14:43:55.396Z,1005.74
2023-10-23T14:44:55.423Z,1005.75
2023-10-23T14:45:55.523Z,1005.74
2023-10-23T14:46:55.472Z,1005.70
2023-10-23T14:47:55.403Z,1005.70
2023-10-23T14:48:55.398Z,1005.67
2023-10-23T14:49:55.396Z,1005.64
2023-10-23T14:50:55.378Z,1005.63
2023-10-23T14:51:55.389Z,1005.64
2023-10-23T14:52:55.401Z,1005.58
2023-10-23T14:53:55.380Z,1005.60
2023-10-23T14:54:55.393Z,1005.55
2023-10-23T14:55:55.356Z,1005.54
2023-10-23T14:56:55.362Z,1005.56
2023-10-23T14:57:55.382Z,1005.56
2023-10-23T14:58:55.374Z,1005.52
2023-10-23T14:59:55.357Z,1005.49
2023-10-23T15:00:55.450Z,1005.47
2023-10-23T15:01:55.410Z,1005.46
2023-10-23T15:02:55.375Z,1005.47
2023-10-23T15:03:55.419Z,1005.40
2023-10-23T15:04:55.408Z,1005.41
2023-10-23T15:05:55.353Z,1005.38
2023-10-23T15:06:55.370Z,1005.37
2023-10-23T15:07:55.332Z,1005.39
2023-10-23T15:08:55.331Z,1005.37
2023-10-23T15:09:55.343Z,1005.34
2023-10-23T15:10:55.350Z,1005.37
2023-10-23T15:11:55.329Z,1005.34
2023-10-23T15:12:55.395Z,1005.31
2023-10-23T15:13:55.339Z,1005.31
2023-10-23T15:14:55.330Z,1005.30
2023-10-23T15:15:55.397Z,1005.30
2023-10-23T15:16:55.413Z,1005.33
2023-10-23T15:17:55.371Z,1005.33
2023-10-23T15:18:55.377Z,1005.33
2023-10-23T15:19:55.299Z,1005.31
2023-10-23T15:20:55.338Z,1005.36
2023-10-23T15:21:55.362Z,1005.36
2023-10-23T15:22:55.324Z,1005.36
2023-10-23T15:23:55.517Z,1005.35
2023-10-23T15:24:55.344Z,1005.38
2023-10-23T15:25:55.314Z,1005.42
2023-10-23T15:26:55.293Z,1005.35
2023-10-23T15:27:55.376Z,1005.37
2023-10-23T15:28:55.325Z,1005.34
2023-10-23T15:29:55.278Z,1005.27
2023-10-23T15:30:55.337Z,1005.28
2023-10-23T15:31:55.355Z,1005.22
2023-10-23T15:32:55.315Z,1005.21
2023-10-23T15:33:55.307Z,1005.20
2023-10-23T15:37:52.677Z,1005.13
2023-10-23T15:38:52.662Z,1005.09
2023-10-23T15:39:52.731Z,1005.09
2023-10-23T15:40:52.660Z,1005.10
2023-10-23T15:41:52.678Z,1005.10
2023-10-23T15:42:52.706Z,1005.07
2023-10-23T15:43:52.650Z,1005.09
2023-10-23T15:44:52.682Z,1005.09
2023-10-23T15:45:52.699Z,1005.06
2023-10-23T15:46:52.790Z,1005.07
2023-10-23T15:47:52.684Z,1005.07
2023-10-23T15:48:52.702Z,1005.06
2023-10-23T15:49:52.639Z,1005.06
2023-10-23T15:50:52.631Z,1005.04
2023-10-23T15:51:52.658Z,1005.09
2023-10-23T15:52:52.631Z,1005.05
2023-10-23T15:53:52.661Z,1005.04
2023-10-23T15:54:52.679Z,1005.02
2023-10-23T15:55:52.624Z,1004.99
2023-10-23T15:56:52.619Z,1004.97
2023-10-23T15:57:52.623Z,1005.01
2023-10-23T15:58:52.633Z,1004.98
2023-10-23T15:59:52.607Z,1004.94
2023-10-23T16:00:52.707Z,1004.96
2023-10-23T16:01:52.723Z,1004.96
2023-10-23T16:02:52.675Z,1004.96
2023-10-23T16:03:52.718Z,1004.98
2023-10-23T16:04:52.695Z,1004.95
2023-10-23T16:05:52.593Z,1004.93
2023-10-23T16:06:52.635Z,1004.90
2023-10-23T16:07:52.596Z,1004.93
2023-10-23T16:08:52.596Z,1004.91
2023-10-23T16:09:52.628Z,1004.90
2023-10-23T16:10:52.594Z,1004.93
2023-10-23T16:11:52.572Z,1004.91
2023-10-23T16:12:52.616Z,1004.97
2023-10-23T16:13:52.572Z,1004.98
2023-10-23T16:14:57.195Z,1005.00
2023-10-23T16:15:52.652Z,1005.00
2023-10-23T16:16:52.665Z,1004.97
2023-10-23T16:29:00.110Z,1004.98
2023-10-23T16:30:00.074Z,1004.98
2023-10-23T16:31:00.151Z,1005.01
2023-10-23T16:32:00.192Z,1005.03
2023-10-23T16:33:00.078Z,1005.01
2023-10-23T16:34:00.077Z,1005.03
2023-10-23T16:35:00.049Z,1005.02
2023-10-23T16:36:00.046Z,1005.02
2023-10-23T16:37:00.057Z,1004.96
2023-10-23T16:38:00.025Z,1004.97
2023-10-23T16:39:00.023Z,1004.96
2023-10-23T16:40:00.078Z,1004.95
2023-10-23T16:41:00.037Z,1004.95
2023-10-23T16:42:00.037Z,1004.92
2023-10-23T16:43:00.037Z,1004.92
2023-10-23T16:43:59.997Z,1004.87
2023-10-23T16:45:00.276Z,1004.91
2023-10-23T16:46:00.028Z,1004.89
2023-10-23T16:47:00.098Z,1004.84
2023-10-23T16:48:00.096Z,1004.83
2023-10-23T16:49:00.019Z,1004.83
2023-10-23T16:50:00.008Z,1004.83
2023-10-23T16:50:59.994Z,1004.83
2023-10-23T16:51:59.995Z,1004.79
2023-10-23T16:53:00.094Z,1004.78
2023-10-23T16:53:59.965Z,1004.78
2023-10-23T16:54:59.989Z,1004.76
2023-10-23T16:55:59.986Z,1004.75